createdAt,value
2019-04-04T00:00:38.735Z,9.45
2019-04-04T00:01:47.804Z,8.25
2019-04-04T00:02:50.615Z,8.90
2019-04-04T00:03:54.799Z,9.25
2019-04-04T00:04:59.167Z,8.73
2019-04-04T00:06:03.509Z,9.43
2019-04-04T00:07:07.941Z,9.35
2019-04-04T00:08:12.113Z,9.50
2019-04-04T00:09:16.623Z,9.23
2019-04-04T00:10:21.100Z,9.37
2019-04-04T00:11:25.267Z,9.03
2019-04-04T00:12:29.627Z,8.98
2019-04-04T00:13:33.795Z,8.48
2019-04-04T00:14:38.076Z,9.15
2019-04-04T00:15:42.245Z,8.55
2019-04-04T00:16:48.593Z,9.18
2019-04-04T00:17:53.748Z,9.23
2019-04-04T00:18:59.171Z,9.05
2019-04-04T00:20:05.327Z,9.43
2019-04-04T00:21:09.495Z,9.45
2019-04-04T00:22:13.797Z,9.13
2019-04-04T00:23:18.477Z,9.00
2019-04-04T00:24:22.686Z,8.85
2019-04-04T00:25:26.860Z,9.03
2019-04-04T00:26:31.032Z,10.23
2019-04-04T00:27:35.208Z,9.85
2019-04-04T00:28:39.913Z,9.18
2019-04-04T00:29:44.201Z,9.43
2019-04-04T00:30:48.919Z,9.28
2019-04-04T00:31:53.260Z,9.18
2019-04-04T00:32:57.429Z,9.95
2019-04-04T00:34:01.751Z,9.55
2019-04-04T00:35:05.921Z,10.55
2019-04-04T00:36:10.160Z,9.73
2019-04-04T00:37:14.421Z,10.20
2019-04-04T00:38:18.672Z,9.93
2019-04-04T00:39:22.977Z,10.03
2019-04-04T00:40:27.222Z,10.18
2019-04-04T00:41:31.607Z,9.75
2019-04-04T00:42:35.776Z,9.43
2019-04-04T00:43:40.019Z,9.33
2019-04-04T00:44:44.500Z,9.53
2019-04-04T00:45:48.750Z,10.40
2019-04-04T00:46:53.088Z,11.00
2019-04-04T00:47:57.259Z,10.40
2019-04-04T00:49:04.505Z,9.63
2019-04-04T00:50:07.644Z,10.63
2019-04-04T00:51:11.843Z,10.73
2019-04-04T00:52:16.026Z,10.33
2019-04-04T00:53:20.195Z,10.73
2019-04-04T00:54:24.515Z,11.12
2019-04-04T00:55:28.772Z,10.55
2019-04-04T00:56:34.576Z,11.45
2019-04-04T00:57:38.734Z,10.68
2019-04-04T00:58:42.905Z,11.30
2019-04-04T00:59:47.187Z,10.48
2019-04-04T01:00:52.948Z,10.65
2019-04-04T01:01:57.655Z,11.00
2019-04-04T01:03:02.641Z,11.73
2019-04-04T01:04:16.632Z,11.43
2019-04-04T01:05:26.167Z,10.53
2019-04-04T01:06:35.852Z,12.33
2019-04-04T01:07:59.330Z,12.28
2019-04-04T01:09:11.296Z,12.00
2019-04-04T01:10:12.831Z,12.50
2019-04-04T01:11:18.316Z,12.40
2019-04-04T01:12:24.931Z,11.33
2019-04-04T01:13:39.906Z,12.07
2019-04-04T01:16:22.303Z,12.15
2019-04-04T01:17:31.168Z,12.18
2019-04-04T01:18:45.340Z,12.30
2019-04-04T01:19:54.930Z,11.75
2019-04-04T01:21:06.635Z,12.65
2019-04-04T01:22:24.983Z,12.00
2019-04-04T01:23:27.202Z,12.10
2019-04-04T01:24:38.512Z,12.45
2019-04-04T01:25:44.136Z,12.93
2019-04-04T01:26:48.388Z,12.63
2019-04-04T01:27:52.622Z,13.18
2019-04-04T01:28:56.794Z,13.20
2019-04-04T01:30:06.525Z,12.15
2019-04-04T01:31:15.821Z,12.10
2019-04-04T01:32:32.885Z,12.83
2019-04-04T01:33:50.796Z,12.65
2019-04-04T01:34:55.991Z,12.20
2019-04-04T01:36:01.838Z,12.15
2019-04-04T01:37:06.014Z,12.47
2019-04-04T01:38:10.264Z,13.57
2019-04-04T01:39:14.611Z,12.43
2019-04-04T01:40:21.807Z,12.80
2019-04-04T01:41:26.354Z,13.08
2019-04-04T01:42:30.568Z,12.82
2019-04-04T01:43:34.710Z,12.20
2019-04-04T01:44:40.122Z,12.78
2019-04-04T01:45:45.136Z,12.98
2019-04-04T01:46:49.765Z,13.75
2019-04-04T01:47:53.938Z,13.68
2019-04-04T01:48:58.117Z,13.95
2019-04-04T01:50:02.365Z,13.55
2019-04-04T01:51:07.960Z,13.10
2019-04-04T01:52:12.229Z,13.50
2019-04-04T01:53:16.592Z,14.10
2019-04-04T01:54:20.767Z,13.40
2019-04-04T01:55:26.004Z,13.15
2019-04-04T01:56:30.259Z,13.28
2019-04-04T01:57:34.433Z,14.15
2019-04-04T01:58:41.006Z,13.43
2019-04-04T01:59:44.549Z,13.83
2019-04-04T02:00:48.794Z,14.33
2019-04-04T02:01:53.101Z,14.38
2019-04-04T02:02:57.258Z,14.10
2019-04-04T02:04:01.578Z,13.93
2019-04-04T02:05:06.017Z,14.05
2019-04-04T02:06:10.261Z,13.67
2019-04-04T02:07:14.537Z,14.25
2019-04-04T02:08:19.061Z,13.77
2019-04-04T02:09:23.274Z,14.60
2019-04-04T02:10:27.445Z,13.80
2019-04-04T02:11:31.770Z,14.85
2019-04-04T02:12:38.481Z,13.35
2019-04-04T02:13:43.458Z,14.30
2019-04-04T02:14:47.727Z,14.58
2019-04-04T02:15:52.017Z,14.73
2019-04-04T02:16:56.260Z,13.90
2019-04-04T02:18:00.532Z,15.23
2019-04-04T02:19:04.654Z,14.35
2019-04-04T02:20:08.897Z,14.58
2019-04-04T02:21:13.088Z,15.13
2019-04-04T02:22:17.287Z,14.40
2019-04-04T02:23:21.462Z,14.63
2019-04-04T02:24:25.640Z,14.47
2019-04-04T02:25:29.814Z,14.38
2019-04-04T02:26:36.181Z,14.58
2019-04-04T02:27:40.839Z,14.45
2019-04-04T02:28:45.010Z,14.58
2019-04-04T02:29:49.246Z,13.65
2019-04-04T02:30:53.492Z,14.95
2019-04-04T02:32:14.239Z,14.93
2019-04-04T02:33:18.443Z,15.43
2019-04-04T02:34:22.694Z,14.03
2019-04-04T02:35:26.867Z,14.93
2019-04-04T02:36:31.213Z,14.83
2019-04-04T02:37:35.398Z,15.70
2019-04-04T02:38:40.112Z,14.47
2019-04-04T02:39:44.349Z,15.68
2019-04-04T02:40:48.537Z,14.38
2019-04-04T02:41:53.169Z,15.30
2019-04-04T02:42:57.413Z,14.28
2019-04-04T02:44:02.087Z,15.75
2019-04-04T02:45:06.587Z,14.80
2019-04-04T02:46:11.632Z,15.03
2019-04-04T02:47:17.397Z,15.10
2019-04-04T02:48:24.388Z,15.43
2019-04-04T02:49:29.531Z,15.93
2019-04-04T02:50:35.577Z,15.75
2019-04-04T02:51:41.335Z,15.90
2019-04-04T02:52:46.968Z,15.58
2019-04-04T02:53:52.950Z,16.25
2019-04-04T02:54:58.464Z,15.32
2019-04-04T02:56:03.675Z,15.18
2019-04-04T02:57:09.639Z,16.42
2019-04-04T02:58:15.299Z,15.97
2019-04-04T02:59:21.432Z,15.50
2019-04-04T03:00:26.747Z,15.72
2019-04-04T03:01:33.157Z,15.20
2019-04-04T03:02:37.617Z,15.40
2019-04-04T03:03:42.349Z,15.83
2019-04-04T03:04:47.256Z,16.17
2019-04-04T03:05:52.293Z,15.60
2019-04-04T03:06:58.461Z,17.15
2019-04-04T03:08:04.249Z,16.45
2019-04-04T03:09:10.069Z,15.30
2019-04-04T03:10:16.351Z,16.23
2019-04-04T03:11:22.168Z,16.90
2019-04-04T03:12:27.074Z,16.60
2019-04-04T03:13:32.310Z,14.80
2019-04-04T03:14:38.029Z,15.45
2019-04-04T03:15:47.273Z,15.90
2019-04-04T03:16:48.139Z,15.60
2019-04-04T03:17:54.302Z,14.80
2019-04-04T03:18:58.512Z,15.95
2019-04-04T03:20:04.297Z,15.75
2019-04-04T03:21:08.460Z,17.15
2019-04-04T03:22:12.648Z,15.77
2019-04-04T03:23:16.921Z,15.97
2019-04-04T03:24:21.092Z,15.27
2019-04-04T03:25:25.340Z,16.55
2019-04-04T03:26:29.591Z,13.58
2019-04-04T03:27:33.842Z,15.18
2019-04-04T03:28:38.476Z,15.58
2019-04-04T03:29:42.726Z,15.18
2019-04-04T03:30:51.700Z,15.35
2019-04-04T03:31:52.917Z,15.93
2019-04-04T03:32:57.097Z,15.93
2019-04-04T03:34:08.389Z,15.72
2019-04-04T03:35:07.550Z,16.40
2019-04-04T03:36:11.730Z,15.07
2019-04-04T03:37:16.970Z,16.67
2019-04-04T03:38:21.239Z,15.77
2019-04-04T03:39:25.621Z,15.18
2019-04-04T03:40:29.852Z,14.68
2019-04-04T03:41:36.146Z,15.72
2019-04-04T03:42:44.047Z,15.23
2019-04-04T03:43:48.870Z,16.23
2019-04-04T03:44:53.425Z,16.12
2019-04-04T03:46:01.352Z,16.15
2019-04-04T03:47:04.573Z,15.46
2019-04-04T03:48:08.761Z,16.12
2019-04-04T03:49:12.937Z,17.40
2019-04-04T03:50:17.107Z,17.73
2019-04-04T03:51:21.283Z,16.73
2019-04-04T03:52:25.553Z,18.00
2019-04-04T03:53:30.879Z,17.77
2019-04-04T03:54:35.047Z,17.70
2019-04-04T03:55:39.221Z,17.87
2019-04-04T03:56:43.466Z,17.87
2019-04-04T03:57:47.617Z,18.12
2019-04-04T03:58:51.796Z,17.02
2019-04-04T03:59:56.005Z,17.45
2019-04-04T04:01:00.220Z,17.32
2019-04-04T04:02:04.767Z,17.94
2019-04-04T04:03:09.061Z,18.27
2019-04-04T04:04:13.259Z,17.00
2019-04-04T04:05:33.997Z,17.62
2019-04-04T04:06:34.422Z,17.27
2019-04-04T04:07:38.595Z,17.15
2019-04-04T04:08:42.826Z,17.20
2019-04-04T04:09:47.274Z,16.93
2019-04-04T04:10:51.522Z,17.27
2019-04-04T04:11:55.713Z,17.92
2019-04-04T04:12:59.895Z,16.07
2019-04-04T04:14:05.274Z,17.48
2019-04-04T04:15:09.454Z,17.37
2019-04-04T04:16:13.651Z,18.17
2019-04-04T04:17:17.814Z,17.40
2019-04-04T04:18:23.051Z,17.87
2019-04-04T04:19:30.880Z,16.87
2019-04-04T04:20:36.246Z,17.60
2019-04-04T04:21:42.749Z,17.75
2019-04-04T04:22:45.758Z,18.70
2019-04-04T04:23:50.114Z,17.67
2019-04-04T04:24:54.404Z,17.35
2019-04-04T04:25:58.636Z,17.62
2019-04-04T04:27:04.399Z,18.00
2019-04-04T04:28:09.029Z,18.25
2019-04-04T04:29:13.211Z,16.73
2019-04-04T04:30:17.814Z,18.00
2019-04-04T04:31:23.480Z,17.37
2019-04-04T04:32:28.016Z,18.65
2019-04-04T04:33:32.184Z,17.57
2019-04-04T04:34:36.362Z,17.77
2019-04-04T04:35:42.077Z,17.35
2019-04-04T04:36:49.479Z,17.40
2019-04-04T04:37:54.038Z,19.17
2019-04-04T04:38:59.818Z,18.70
2019-04-04T04:40:05.441Z,18.80
2019-04-04T04:41:09.687Z,18.93
2019-04-04T04:42:13.864Z,19.17
2019-04-04T04:43:18.063Z,18.67
2019-04-04T04:44:22.274Z,20.32
2019-04-04T04:45:26.426Z,18.80
2019-04-04T04:46:30.943Z,19.55
2019-04-04T04:47:35.158Z,19.17
2019-04-04T04:48:39.687Z,19.60
2019-04-04T04:49:44.136Z,19.40
2019-04-04T04:50:48.359Z,18.77
2019-04-04T04:51:52.650Z,18.37
2019-04-04T04:52:56.831Z,19.57
2019-04-04T04:54:01.178Z,20.50
2019-04-04T04:55:05.824Z,19.80
2019-04-04T04:56:10.000Z,19.30
2019-04-04T04:57:28.501Z,18.63
2019-04-04T04:58:20.563Z,19.53
2019-04-04T04:59:29.311Z,19.12
2019-04-04T05:00:33.611Z,19.85
2019-04-04T05:01:40.531Z,18.70
2019-04-04T05:02:43.893Z,18.82
2019-04-04T05:03:50.621Z,18.92
2019-04-04T05:04:54.467Z,18.75
2019-04-04T05:06:02.295Z,18.67
2019-04-04T05:07:07.120Z,20.17
2019-04-04T05:08:10.791Z,20.25
2019-04-04T05:09:15.069Z,19.80
2019-04-04T05:10:19.280Z,20.30
2019-04-04T05:11:23.499Z,21.00
2019-04-04T05:12:27.677Z,20.27
2019-04-04T05:13:32.278Z,19.27
2019-04-04T05:14:36.496Z,19.50
2019-04-04T05:15:40.740Z,19.60
2019-04-04T05:16:44.982Z,20.70
2019-04-04T05:17:50.870Z,21.35
2019-04-04T05:18:56.145Z,21.60
2019-04-04T05:20:00.313Z,21.35
2019-04-04T05:21:04.502Z,19.75
2019-04-04T05:22:09.255Z,22.13
2019-04-04T05:23:15.682Z,19.83
2019-04-04T05:24:19.948Z,20.43
2019-04-04T05:25:24.131Z,21.70
2019-04-04T05:26:28.359Z,19.55
2019-04-04T05:27:32.509Z,20.20
2019-04-04T05:28:36.697Z,21.23
2019-04-04T05:29:40.872Z,20.92
2019-04-04T05:30:47.140Z,20.72
2019-04-04T05:31:50.946Z,19.55
2019-04-04T05:32:56.523Z,19.67
2019-04-04T05:34:00.990Z,20.17
2019-04-04T05:35:06.949Z,20.72
2019-04-04T05:36:11.162Z,21.10
2019-04-04T05:37:15.325Z,20.73
2019-04-04T05:38:19.593Z,20.07
2019-04-04T05:39:23.865Z,20.60
2019-04-04T05:40:30.704Z,19.32
2019-04-04T05:41:37.151Z,19.23
2019-04-04T05:42:40.338Z,18.70
2019-04-04T05:43:44.632Z,20.32
2019-04-04T05:44:48.762Z,18.45
2019-04-04T05:45:53.097Z,20.65
2019-04-04T05:46:57.274Z,19.12
2019-04-04T05:48:01.667Z,20.88
2019-04-04T05:49:07.885Z,20.17
2019-04-04T05:50:12.078Z,20.32
2019-04-04T05:51:16.426Z,20.03
2019-04-04T05:52:20.617Z,20.50
2019-04-04T05:53:24.808Z,19.77
2019-04-04T05:54:29.070Z,19.75
2019-04-04T05:55:33.314Z,19.20
2019-04-04T05:56:37.870Z,18.57
2019-04-04T05:57:42.042Z,20.52
2019-04-04T05:58:46.396Z,18.55
2019-04-04T05:59:50.567Z,19.98
2019-04-04T06:00:57.584Z,19.77
2019-04-04T06:02:00.828Z,21.00
2019-04-04T06:03:04.996Z,19.02
2019-04-04T06:04:09.194Z,19.37
2019-04-04T06:05:13.448Z,18.87
2019-04-04T06:06:17.803Z,19.33
2019-04-04T06:07:21.988Z,17.97
2019-04-04T06:08:27.385Z,19.10
2019-04-04T06:09:32.500Z,19.25
2019-04-04T06:10:37.274Z,19.23
2019-04-04T06:11:41.438Z,17.80
2019-04-04T06:12:47.340Z,17.23
2019-04-04T06:13:51.815Z,19.05
2019-04-04T06:14:56.890Z,17.82
2019-04-04T06:16:02.074Z,19.57
2019-04-04T06:17:07.796Z,17.10
2019-04-04T06:18:12.133Z,18.33
2019-04-04T06:19:20.599Z,17.57
2019-04-04T06:20:24.853Z,17.70
2019-04-04T06:21:29.226Z,17.20
2019-04-04T06:22:34.975Z,16.90
2019-04-04T06:23:40.782Z,17.65
2019-04-04T06:24:44.994Z,17.12
2019-04-04T06:25:50.874Z,15.23
2019-04-04T06:26:55.202Z,14.15
2019-04-04T06:27:59.433Z,12.05
2019-04-04T06:29:05.747Z,11.52
2019-04-04T06:30:10.152Z,10.30
2019-04-04T06:31:14.409Z,10.77
2019-04-04T06:32:18.653Z,9.97
2019-04-04T06:33:22.927Z,10.80
2019-04-04T06:34:27.201Z,10.15
2019-04-04T06:35:35.921Z,8.18
2019-04-04T06:36:40.153Z,7.85
2019-04-04T06:37:46.010Z,7.30
2019-04-04T06:38:52.238Z,6.92
2019-04-04T06:39:58.733Z,6.80
2019-04-04T06:41:02.591Z,6.85
2019-04-04T06:42:06.878Z,6.67
2019-04-04T06:43:11.917Z,5.70
2019-04-04T06:44:16.458Z,5.17
2019-04-04T06:45:20.697Z,5.10
2019-04-04T06:46:24.942Z,4.67
2019-04-04T06:47:32.188Z,5.12
2019-04-04T06:48:35.190Z,5.08
2019-04-04T06:49:39.424Z,4.50
2019-04-04T06:50:43.596Z,4.60
2019-04-04T06:51:47.827Z,5.58
2019-04-04T06:52:52.798Z,5.30
2019-04-04T06:53:59.442Z,5.75
2019-04-04T06:55:02.834Z,6.00
2019-04-04T06:56:06.996Z,5.97
2019-04-04T06:57:11.163Z,5.83
2019-04-04T06:58:16.989Z,6.03
2019-04-04T06:59:21.489Z,5.80
2019-04-04T07:00:25.655Z,5.42
2019-04-04T07:01:29.900Z,5.63
2019-04-04T07:02:34.237Z,5.72
2019-04-04T07:03:38.531Z,5.78
2019-04-04T07:04:42.964Z,5.20
2019-04-04T07:05:47.204Z,5.50
2019-04-04T07:06:51.363Z,4.80
2019-04-04T07:07:55.602Z,5.25
2019-04-04T07:09:01.586Z,4.97
2019-04-04T07:10:05.984Z,5.30
2019-04-04T07:11:21.079Z,4.13
2019-04-04T07:12:24.238Z,4.15
2019-04-04T07:13:26.897Z,4.55
2019-04-04T07:14:29.996Z,4.47
2019-04-04T07:15:45.881Z,5.00
2019-04-04T07:16:39.879Z,5.00
2019-04-04T07:17:44.059Z,4.80
2019-04-04T07:18:48.231Z,5.28
2019-04-04T07:19:52.689Z,5.40
2019-04-04T07:20:56.859Z,5.67
2019-04-04T07:22:01.111Z,5.25
2019-04-04T07:23:05.277Z,5.08
2019-04-04T07:24:11.072Z,5.05
2019-04-04T07:25:15.304Z,5.47
2019-04-04T07:26:19.469Z,4.57
2019-04-04T07:27:24.149Z,4.87
2019-04-04T07:28:30.728Z,4.90
2019-04-04T07:29:34.323Z,4.80
2019-04-04T07:30:38.487Z,4.87
2019-04-04T07:31:42.654Z,4.60
2019-04-04T07:32:47.008Z,5.72
2019-04-04T07:33:51.207Z,4.40
2019-04-04T07:34:55.414Z,4.97
2019-04-04T07:35:59.719Z,5.65
2019-04-04T07:37:04.398Z,6.05
2019-04-04T07:38:08.592Z,4.90
2019-04-04T07:39:12.841Z,5.30
2019-04-04T07:40:21.658Z,5.40
2019-04-04T07:41:29.111Z,5.90
2019-04-04T07:42:34.381Z,5.12
2019-04-04T07:43:39.555Z,4.80
2019-04-04T07:44:45.101Z,5.42
2019-04-04T07:45:49.430Z,5.67
2019-04-04T07:46:54.557Z,6.55
2019-04-04T07:47:58.873Z,5.75
2019-04-04T07:49:03.245Z,5.85
2019-04-04T07:50:10.552Z,6.12
2019-04-04T07:51:14.797Z,6.00
2019-04-04T07:52:18.956Z,6.33
2019-04-04T07:53:23.191Z,6.10
2019-04-04T07:54:27.493Z,6.20
2019-04-04T07:55:31.816Z,6.40
2019-04-04T07:56:36.056Z,6.95
2019-04-04T07:57:40.292Z,6.87
2019-04-04T07:58:44.636Z,6.28
2019-04-04T07:59:49.015Z,6.05
2019-04-04T08:00:53.252Z,6.25
2019-04-04T08:01:57.524Z,6.67
2019-04-04T08:03:01.769Z,5.58
2019-04-04T08:04:06.836Z,7.00
2019-04-04T08:05:13.189Z,6.00
2019-04-04T08:06:16.939Z,5.62
2019-04-04T08:07:21.125Z,5.50
2019-04-04T08:08:25.292Z,6.92
2019-04-04T08:09:29.527Z,5.87
2019-04-04T08:10:33.791Z,6.00
2019-04-04T08:11:37.956Z,6.90
2019-04-04T08:12:42.124Z,7.08
2019-04-04T08:13:46.317Z,6.78
2019-04-04T08:14:50.612Z,6.92
2019-04-04T08:15:55.756Z,7.65
2019-04-04T08:16:59.925Z,7.28
2019-04-04T08:18:04.214Z,6.92
2019-04-04T08:19:09.244Z,6.80
2019-04-04T08:20:13.496Z,7.00
2019-04-04T08:21:17.698Z,6.77
2019-04-04T08:22:21.960Z,6.70
2019-04-04T08:23:26.220Z,6.72
2019-04-04T08:24:30.584Z,7.47
2019-04-04T08:25:34.934Z,7.35
2019-04-04T08:26:39.135Z,6.33
2019-04-04T08:27:43.305Z,6.83
2019-04-04T08:28:47.557Z,6.35
2019-04-04T08:29:51.725Z,7.25
2019-04-04T08:30:55.941Z,7.37
2019-04-04T08:32:00.593Z,7.47
2019-04-04T08:33:04.748Z,7.15
2019-04-04T08:34:08.989Z,7.42
2019-04-04T08:35:13.161Z,7.20
2019-04-04T08:36:17.326Z,7.80
2019-04-04T08:37:21.536Z,7.17
2019-04-04T08:38:25.702Z,6.95
2019-04-04T08:39:29.883Z,7.28
2019-04-04T08:40:34.073Z,6.25
2019-04-04T08:41:38.284Z,7.28
2019-04-04T08:42:42.970Z,6.05
2019-04-04T08:43:47.197Z,6.72
2019-04-04T08:44:51.364Z,6.20
2019-04-04T08:45:55.535Z,4.80
2019-04-04T08:46:59.856Z,4.40
2019-04-04T08:48:05.777Z,3.76
2019-04-04T08:49:09.944Z,4.20
2019-04-04T08:50:14.251Z,4.22
2019-04-04T08:51:18.410Z,4.03
2019-04-04T08:52:22.640Z,4.30
2019-04-04T08:53:38.939Z,3.80
2019-04-04T08:54:32.719Z,3.75
2019-04-04T08:55:37.030Z,3.90
2019-04-04T08:56:41.196Z,4.15
2019-04-04T08:57:45.543Z,3.98
2019-04-04T08:58:51.652Z,3.80
2019-04-04T08:59:55.687Z,4.65
2019-04-04T09:00:59.855Z,4.25
2019-04-04T09:02:04.292Z,3.75
2019-04-04T09:03:08.553Z,4.17
2019-04-04T09:04:12.838Z,4.10
2019-04-04T09:05:17.069Z,3.90
2019-04-04T09:06:21.245Z,4.57
2019-04-04T09:07:25.481Z,4.35
2019-04-04T09:08:29.715Z,4.30
2019-04-04T09:09:35.737Z,4.25
2019-04-04T09:10:40.053Z,4.50
2019-04-04T09:11:44.328Z,5.35
2019-04-04T09:12:48.565Z,5.58
2019-04-04T09:13:52.903Z,5.50
2019-04-04T09:14:57.116Z,5.15
2019-04-04T09:16:01.551Z,5.45
2019-04-04T09:17:05.705Z,5.75
2019-04-04T09:18:09.869Z,5.47
2019-04-04T09:19:14.804Z,5.37
2019-04-04T09:20:20.625Z,3.73
2019-04-04T09:21:24.796Z,3.85
2019-04-04T09:22:29.220Z,4.08
2019-04-04T09:23:33.387Z,3.58
2019-04-04T09:24:37.683Z,4.45
2019-04-04T09:25:41.965Z,3.77
2019-04-04T09:26:46.206Z,4.28
2019-04-04T09:27:50.434Z,3.72
2019-04-04T09:28:54.670Z,3.60
2019-04-04T09:29:59.000Z,4.45
2019-04-04T09:31:03.668Z,3.80
2019-04-04T09:32:07.872Z,3.25
2019-04-04T09:33:12.034Z,3.50
2019-04-04T09:34:17.829Z,3.60
2019-04-04T09:35:21.987Z,3.57
2019-04-04T09:36:26.324Z,3.30
2019-04-04T09:37:32.234Z,3.58
2019-04-04T09:38:36.415Z,3.55
2019-04-04T09:39:40.642Z,3.87
2019-04-04T09:40:44.803Z,4.10
2019-04-04T09:41:50.038Z,3.90
2019-04-04T09:42:54.229Z,4.25
2019-04-04T09:43:58.399Z,3.70
2019-04-04T09:45:02.720Z,2.58
2019-04-04T09:46:08.034Z,2.72
2019-04-04T09:47:12.231Z,2.90
2019-04-04T09:48:16.517Z,3.07
2019-04-04T09:49:20.676Z,2.80
2019-04-04T09:50:27.692Z,2.70
2019-04-04T09:51:33.482Z,2.50
2019-04-04T09:52:38.283Z,2.45
2019-04-04T09:53:52.789Z,2.37
2019-04-04T09:55:56.285Z,3.20
2019-04-04T09:57:02.119Z,2.67
2019-04-04T09:58:06.389Z,3.75
2019-04-04T09:59:10.643Z,3.30
2019-04-04T10:00:16.295Z,2.63
2019-04-04T10:01:20.535Z,2.50
2019-04-04T10:02:24.913Z,2.58
2019-04-04T10:03:29.494Z,2.40
2019-04-04T10:04:33.663Z,2.35
2019-04-04T10:05:37.887Z,2.35
2019-04-04T10:06:42.055Z,2.30
2019-04-04T10:07:46.282Z,2.05
2019-04-04T10:08:50.474Z,2.10
2019-04-04T10:09:54.641Z,1.90
2019-04-04T10:10:58.988Z,1.70
2019-04-04T10:12:03.154Z,2.00
2019-04-04T10:13:07.386Z,1.92
2019-04-04T10:14:11.554Z,2.10
2019-04-04T10:15:15.795Z,2.27
2019-04-04T10:16:19.976Z,2.00
2019-04-04T10:17:24.220Z,1.87
2019-04-04T10:18:28.560Z,1.92
2019-04-04T10:19:32.803Z,2.05
2019-04-04T10:20:37.152Z,2.27
2019-04-04T10:21:42.149Z,2.00
2019-04-04T10:22:47.484Z,1.72
2019-04-04T10:23:51.665Z,1.82
2019-04-04T10:24:55.856Z,2.00
2019-04-04T10:26:00.153Z,1.85
2019-04-04T10:27:04.903Z,1.80
2019-04-04T10:28:09.318Z,2.30
2019-04-04T10:29:13.817Z,1.83
2019-04-04T10:30:18.953Z,1.87
2019-04-04T10:31:23.139Z,1.80
2019-04-04T10:32:27.485Z,1.80
2019-04-04T10:33:31.648Z,1.75
2019-04-04T10:34:35.816Z,2.05
2019-04-04T10:35:39.980Z,1.67
2019-04-04T10:36:44.222Z,2.05
2019-04-04T10:37:48.661Z,1.62
2019-04-04T10:38:52.921Z,2.00
2019-04-04T10:39:57.088Z,1.62
2019-04-04T10:41:01.325Z,2.00
2019-04-04T10:42:05.495Z,2.05
2019-04-04T10:43:09.854Z,1.90
2019-04-04T10:44:14.045Z,1.60
2019-04-04T10:45:18.212Z,1.70
2019-04-04T10:46:23.433Z,1.50
2019-04-04T10:47:27.607Z,1.70
2019-04-04T10:48:32.071Z,1.77
2019-04-04T10:49:37.281Z,1.85
2019-04-04T10:50:41.454Z,1.80
2019-04-04T10:51:45.961Z,1.50
2019-04-04T10:52:52.813Z,1.60
2019-04-04T10:53:57.020Z,1.47
2019-04-04T10:55:01.814Z,1.60
2019-04-04T10:56:06.169Z,1.40
2019-04-04T10:57:10.324Z,1.40
2019-04-04T10:58:15.671Z,1.40
2019-04-04T10:59:19.842Z,1.10
2019-04-04T11:00:24.984Z,1.30
2019-04-04T11:01:29.239Z,1.50
2019-04-04T11:02:33.405Z,1.32
2019-04-04T11:03:37.572Z,1.80
2019-04-04T11:04:41.767Z,1.50
2019-04-04T11:05:46.098Z,1.50
2019-04-04T11:06:50.262Z,1.40
2019-04-04T11:07:56.923Z,1.72
2019-04-04T11:09:01.293Z,3.35
2019-04-04T11:10:07.653Z,4.10
2019-04-04T11:11:11.822Z,4.60
2019-04-04T11:12:16.055Z,2.30
2019-04-04T11:13:32.587Z,1.90
2019-04-04T11:14:26.152Z,1.60
2019-04-04T11:15:31.977Z,1.70
2019-04-04T11:16:36.449Z,1.40
2019-04-04T11:17:40.705Z,1.30
2019-04-04T11:18:44.820Z,1.50
2019-04-04T11:19:49.003Z,1.30
2019-04-04T11:20:53.239Z,1.57
2019-04-04T11:21:57.475Z,1.25
2019-04-04T11:23:01.614Z,1.62
2019-04-04T11:24:06.739Z,1.22
2019-04-04T11:25:10.908Z,1.33
2019-04-04T11:26:15.255Z,1.60
2019-04-04T11:27:19.431Z,1.50
2019-04-04T11:28:23.587Z,1.50
2019-04-04T11:29:27.888Z,1.72
2019-04-04T11:30:32.031Z,1.82
2019-04-04T11:31:36.223Z,1.60
2019-04-04T11:32:40.359Z,1.70
2019-04-04T11:33:44.574Z,1.37
2019-04-04T11:34:53.421Z,1.90
2019-04-04T11:35:56.198Z,2.05
2019-04-04T11:37:03.248Z,1.92
2019-04-04T11:38:07.515Z,1.95
2019-04-04T11:39:11.723Z,1.90
2019-04-04T11:40:17.528Z,1.60
2019-04-04T11:41:21.797Z,1.90
2019-04-04T11:42:25.967Z,1.60
2019-04-04T11:43:30.443Z,1.65
2019-04-04T11:44:34.638Z,1.72
2019-04-04T11:45:40.435Z,2.10
2019-04-04T11:46:45.779Z,1.77
2019-04-04T11:47:50.037Z,2.02
2019-04-04T11:48:54.299Z,2.10
2019-04-04T11:50:01.479Z,1.57
2019-04-04T11:51:05.646Z,1.30
2019-04-04T11:52:09.843Z,1.47
2019-04-04T11:53:14.096Z,1.60
2019-04-04T11:54:18.322Z,1.60
2019-04-04T11:55:22.489Z,1.40
2019-04-04T11:56:26.680Z,1.90
2019-04-04T11:57:30.965Z,1.70
2019-04-04T11:58:35.161Z,1.75
2019-04-04T11:59:39.397Z,2.15
2019-04-04T12:00:47.655Z,1.50
2019-04-04T12:01:52.479Z,1.67
2019-04-04T12:02:56.968Z,1.20
2019-04-04T12:04:01.303Z,1.57
2019-04-04T12:05:07.380Z,1.35
2019-04-04T12:06:11.574Z,1.50
2019-04-04T12:07:15.880Z,1.37
2019-04-04T12:08:20.045Z,1.20
2019-04-04T12:09:24.306Z,1.40
2019-04-04T12:10:28.547Z,1.30
2019-04-04T12:11:32.893Z,1.37
2019-04-04T12:12:37.127Z,1.20
2019-04-04T12:13:41.355Z,1.45
2019-04-04T12:14:45.688Z,1.50
2019-04-04T12:15:49.897Z,1.45
2019-04-04T12:16:54.134Z,1.60
2019-04-04T12:17:58.378Z,1.80
2019-04-04T12:19:02.569Z,2.75
2019-04-04T12:20:08.542Z,2.75
2019-04-04T12:21:12.907Z,2.87
2019-04-04T12:22:17.252Z,3.47
2019-04-04T12:23:21.693Z,3.57
2019-04-04T12:24:25.928Z,3.72
2019-04-04T12:25:30.311Z,3.52
2019-04-04T12:26:35.011Z,3.67
2019-04-04T12:27:40.787Z,3.52
2019-04-04T12:28:48.140Z,3.20
2019-04-04T12:29:52.564Z,1.75
2019-04-04T12:30:56.791Z,2.08
2019-04-04T12:32:03.527Z,1.60
2019-04-04T12:33:07.798Z,1.45
2019-04-04T12:34:11.992Z,1.40
2019-04-04T12:35:16.152Z,1.40
2019-04-04T12:36:24.917Z,2.40
2019-04-04T12:37:26.214Z,3.42
2019-04-04T12:38:30.623Z,4.53
2019-04-04T12:39:34.792Z,2.52
2019-04-04T12:40:39.006Z,3.92
2019-04-04T12:41:43.245Z,4.80
2019-04-04T12:42:47.727Z,3.02
2019-04-04T12:43:52.100Z,3.00
2019-04-04T12:44:56.267Z,2.92
2019-04-04T12:46:00.623Z,8.38
2019-04-04T12:47:04.792Z,8.58
2019-04-04T12:48:09.348Z,7.75
2019-04-04T12:49:13.630Z,6.20
2019-04-04T12:50:17.889Z,5.23
2019-04-04T12:51:22.149Z,5.73
2019-04-04T12:52:27.016Z,6.78
2019-04-04T12:53:32.725Z,6.67
2019-04-04T12:54:37.160Z,4.90
2019-04-04T12:55:41.319Z,4.87
2019-04-04T12:56:45.487Z,4.60
2019-04-04T12:57:49.658Z,3.77
2019-04-04T12:58:53.819Z,3.30
2019-04-04T12:59:59.896Z,3.12
2019-04-04T13:01:04.991Z,2.42
2019-04-04T13:02:09.209Z,1.62
2019-04-04T13:03:13.444Z,1.50
2019-04-04T13:04:17.612Z,1.40
2019-04-04T13:05:21.892Z,1.23
2019-04-04T13:06:26.056Z,1.98
2019-04-04T13:07:30.297Z,1.42
2019-04-04T13:08:34.460Z,1.53
2019-04-04T13:09:38.623Z,1.77
2019-04-04T13:10:42.812Z,1.50
2019-04-04T13:11:48.055Z,1.20
2019-04-04T13:12:52.231Z,1.20
2019-04-04T13:13:56.566Z,1.32
2019-04-04T13:15:00.800Z,1.75
2019-04-04T13:16:05.084Z,1.80
2019-04-04T13:17:09.343Z,1.80
2019-04-04T13:18:15.170Z,2.42
2019-04-04T13:19:19.252Z,1.83
2019-04-04T13:20:23.740Z,1.80
2019-04-04T13:21:27.907Z,1.47
2019-04-04T13:22:32.559Z,1.70
2019-04-04T13:23:36.720Z,2.10
2019-04-04T13:24:40.889Z,1.60
2019-04-04T13:25:45.067Z,1.70
2019-04-04T13:26:49.241Z,1.90
2019-04-04T13:27:53.501Z,1.87
2019-04-04T13:28:57.804Z,1.60
2019-04-04T13:30:02.041Z,1.98
2019-04-04T13:31:06.274Z,1.90
2019-04-04T13:32:11.404Z,1.90
2019-04-04T13:33:15.672Z,1.80
2019-04-04T13:34:19.829Z,1.70
2019-04-04T13:35:24.002Z,1.45
2019-04-04T13:36:28.165Z,1.47
2019-04-04T13:37:32.398Z,1.85
2019-04-04T13:38:36.660Z,1.70
2019-04-04T13:39:40.823Z,1.77
2019-04-04T13:40:46.012Z,1.70
2019-04-04T13:41:50.399Z,1.62
2019-04-04T13:42:54.564Z,1.92
2019-04-04T13:43:58.893Z,1.82
2019-04-04T13:45:03.442Z,1.82
2019-04-04T13:46:07.746Z,1.55
2019-04-04T13:47:11.908Z,1.70
2019-04-04T13:48:16.074Z,1.80
2019-04-04T13:49:20.310Z,1.57
2019-04-04T13:50:24.507Z,1.92
2019-04-04T13:51:28.837Z,1.62
2019-04-04T13:52:33.011Z,1.80
2019-04-04T13:53:37.177Z,1.57
2019-04-04T13:54:41.412Z,1.67
2019-04-04T13:55:45.826Z,1.65
2019-04-04T13:56:50.136Z,1.55
2019-04-04T13:57:54.302Z,1.80
2019-04-04T13:59:00.937Z,1.80
2019-04-04T14:00:08.783Z,1.67
2019-04-04T14:01:13.147Z,1.70
2019-04-04T14:02:17.380Z,1.80
2019-04-04T14:03:21.617Z,1.60
2019-04-04T14:04:26.000Z,1.80
2019-04-04T14:05:30.239Z,1.70
2019-04-04T14:06:34.540Z,1.52
2019-04-04T14:07:38.703Z,1.80
2019-04-04T14:08:45.701Z,1.77
2019-04-04T14:09:49.037Z,1.70
2019-04-04T14:10:58.447Z,2.00
2019-04-04T14:11:59.572Z,1.67
2019-04-04T14:13:04.749Z,1.52
2019-04-04T14:14:08.921Z,1.47